Time;durP1;ratioP1;P1;durP2;ratioP2;P2;SDS_P1;SDS_P2;PMS_P1;PMS_P2;Temp;Humidity;BMP_temperature;BMP_pressure;BME280_temperature;BME280_humidity;BME280_pressure;Samples;Min_cycle;Max_cycle;Signal;HPM_P1;HPM_P2
2021/03/22 00:01:01;;;;;;;7.47;5.10;;;0.40;97.90;;;;;;4981006;28;20218;-82
2021/03/22 00:03:30;;;;;;;7.73;4.80;;;0.30;98.00;;;;;;4995129;28;20201;-85
2021/03/22 00:06:03;;;;;;;9.97;4.87;;;0.20;98.20;;;;;;4961457;28;20229;-84
2021/03/22 00:08:31;;;;;;;6.80;4.63;;;0.20;99.10;;;;;;4985542;28;20209;-81
2021/03/22 00:10:59;;;;;;;7.10;4.77;;;0.20;98.90;;;;;;4978258;28;20210;-83
2021/03/22 00:13:28;;;;;;;6.03;3.90;;;0.20;98.90;;;;;;4976270;28;20214;-82
2021/03/22 00:15:57;;;;;;;4.73;2.93;;;0.20;98.60;;;;;;4942091;28;20297;-82
2021/03/22 00:18:27;;;;;;;10.57;4.40;;;0.30;98.60;;;;;;4993438;28;20230;-83
2021/03/22 00:20:56;;;;;;;7.13;4.17;;;0.20;97.70;;;;;;4996134;28;20202;-83
2021/03/22 00:23:24;;;;;;;7.87;4.40;;;0.20;97.80;;;;;;4997437;28;20225;-84
2021/03/22 00:25:52;;;;;;;9.87;4.40;;;0.00;98.50;;;;;;4946203;28;20225;-81
2021/03/22 00:28:22;;;;;;;8.57;4.17;;;0.10;98.50;;;;;;4968368;28;20812;-82
2021/03/22 00:30:50;;;;;;;4.57;2.43;;;0.00;99.00;;;;;;4982660;28;20208;-82
2021/03/22 00:33:21;;;;;;;10.07;4.80;;;0.10;99.80;;;;;;4982656;28;20210;-80
2021/03/22 00:35:49;;;;;;;6.80;4.03;;;0.10;99.70;;;;;;4943060;28;20715;-83
2021/03/22 00:38:18;;;;;;;7.07;4.77;;;0.10;99.30;;;;;;4980781;28;20235;-83
2021/03/22 00:40:46;;;;;;;7.37;4.37;;;0.00;98.50;;;;;;4978109;28;20275;-84
2021/03/22 00:43:16;;;;;;;7.43;4.40;;;-0.10;98.70;;;;;;4981341;28;20207;-83
2021/03/22 00:45:56;;;;;;;6.83;4.00;;;0.00;99.20;;;;;;4965904;28;20320;-84
2021/03/22 00:48:24;;;;;;;7.93;4.90;;;-0.10;99.30;;;;;;4999550;28;20210;-83
2021/03/22 00:50:54;;;;;;;9.10;4.80;;;0.00;99.00;;;;;;4974956;28;20701;-81
2021/03/22 00:53:23;;;;;;;10.53;4.77;;;0.00;98.70;;;;;;4991058;28;20229;-83
2021/03/22 00:55:51;;;;;;;8.23;4.60;;;-0.10;98.10;;;;;;4946334;28;20239;-81
2021/03/22 00:58:19;;;;;;;10.50;4.57;;;-0.20;98.60;;;;;;4981237;28;20232;-83
2021/03/22 01:00:50;;;;;;;8.80;4.30;;;-0.20;98.70;;;;;;4994629;28;20287;-82
2021/03/22 01:03:21;;;;;;;8.73;3.90;;;-0.20;99.30;;;;;;4990442;28;20216;-83
2021/03/22 01:05:50;;;;;;;8.93;4.30;;;-0.30;99.00;;;;;;4956739;28;20441;-83
2021/03/22 01:08:19;;;;;;;13.80;4.87;;;-0.10;98.00;;;;;;4977788;28;20204;-83
2021/03/22 01:10:49;;;;;;;9.33;3.97;;;-0.10;97.90;;;;;;4979747;28;20260;-82
2021/03/22 01:13:19;;;;;;;9.70;4.63;;;-0.20;97.70;;;;;;4991820;28;20186;-83
2021/03/22 01:15:49;;;;;;;10.93;4.43;;;-0.30;97.50;;;;;;4962843;28;20224;-81
2021/03/22 01:21:46;;;;;;;9.40;5.23;;;-0.20;98.80;;;;;;4992746;28;20208;-82
2021/03/22 01:24:16;;;;;;;8.47;4.23;;;-0.20;98.90;;;;;;4986665;28;20217;-81
2021/03/22 01:26:46;;;;;;;9.13;4.97;;;-0.20;98.40;;;;;;4961026;28;20241;-81
2021/03/22 01:29:17;;;;;;;8.67;4.40;;;-0.20;98.20;;;;;;4994065;28;20215;-82
2021/03/22 01:31:45;;;;;;;9.97;4.90;;;-0.20;98.30;;;;;;4982970;28;20233;-82
2021/03/22 01:34:14;;;;;;;10.97;5.63;;;-0.30;98.20;;;;;;4987787;28;20204;-82
2021/03/22 01:36:42;;;;;;;9.13;4.87;;;-0.40;98.80;;;;;;4959694;28;20228;-83
2021/03/22 01:39:17;;;;;;;9.07;5.07;;;-0.30;99.20;;;;;;4989972;28;20220;-82
2021/03/22 01:41:59;;;;;;;3.93;2.90;;;-0.60;98.90;;;;;;4998691;28;20207;-83
2021/03/22 01:44:29;;;;;;;10.00;5.43;;;-0.50;99.90;;;;;;4990430;28;20193;-82
2021/03/22 01:47:01;;;;;;;11.50;5.77;;;-0.40;99.90;;;;;;4973870;28;20287;-82
2021/03/22 01:49:36;;;;;;;12.43;5.53;;;-0.40;99.90;;;;;;4976957;28;20267;-82
2021/03/22 01:52:08;;;;;;;9.30;5.17;;;-0.50;99.90;;;;;;4956108;28;20653;-82
2021/03/22 01:54:36;;;;;;;11.00;5.30;;;-0.50;99.90;;;;;;4958569;28;20264;-82
2021/03/22 01:57:28;;;;;;;9.80;5.80;;;-0.50;99.90;;;;;;4956486;28;20308;-83
2021/03/22 02:00:13;;;;;;;11.57;5.87;;;-0.50;99.90;;;;;;4972892;28;20208;-82
2021/03/22 02:02:44;;;;;;;11.27;5.37;;;-0.50;99.90;;;;;;4974191;28;20730;-82
2021/03/22 02:05:17;;;;;;;11.67;5.40;;;-0.50;99.90;;;;;;4949627;28;20281;-82
2021/03/22 02:07:50;;;;;;;11.37;6.47;;;-0.50;99.90;;;;;;4964104;28;20231;-82
2021/03/22 02:10:19;;;;;;;12.60;6.70;;;-0.60;99.90;;;;;;4974770;28;20212;-82
2021/03/22 02:12:49;;;;;;;12.63;6.20;;;-0.60;99.90;;;;;;4953315;28;20228;-82
2021/03/22 02:15:19;;;;;;;10.60;5.13;;;-0.60;99.90;;;;;;4954947;28;20228;-82
2021/03/22 02:18:05;;;;;;;6.97;5.23;;;-0.60;99.90;;;;;;4958227;28;21053;-82
2021/03/22 02:21:20;;;;;;;8.63;4.83;;;-0.50;99.90;;;;;;4972800;28;20202;-82
2021/03/22 02:24:22;;;;;;;9.67;5.13;;;-0.50;99.90;;;;;;4973516;28;20628;-81
2021/03/22 02:27:22;;;;;;;6.03;4.53;;;-0.50;99.90;;;;;;4967005;28;20216;-82
2021/03/22 02:30:10;;;;;;;11.30;4.67;;;-0.60;99.90;;;;;;4992836;28;20200;-83
2021/03/22 02:33:16;;;;;;;11.17;4.90;;;-0.60;99.90;;;;;;4985732;28;20200;-81
2021/03/22 02:35:50;;;;;;;9.50;4.27;;;-0.60;99.90;;;;;;4956329;28;20243;-83
2021/03/22 02:38:24;;;;;;;7.33;4.27;;;-0.60;99.90;;;;;;4980415;28;20301;-83
2021/03/22 02:40:56;;;;;;;7.07;4.00;;;-0.50;99.90;;;;;;4988095;28;20212;-82
2021/03/22 02:43:24;;;;;;;7.47;4.57;;;-0.50;99.50;;;;;;4973535;28;20441;-83
2021/03/22 02:45:55;;;;;;;10.63;4.63;;;-0.60;98.60;;;;;;4945213;28;20338;-82
2021/03/22 02:48:29;;;;;;;7.23;3.80;;;-0.60;99.00;;;;;;4955290;28;20675;-82
2021/03/22 02:51:09;;;;;;;5.67;4.00;;;-0.60;99.90;;;;;;4973936;28;20212;-83
2021/03/22 02:53:45;;;;;;;7.20;4.47;;;-0.60;99.50;;;;;;4972017;28;20524;-83
2021/03/22 02:56:27;;;;;;;9.73;5.13;;;-0.70;99.40;;;;;;4950691;28;20228;-81
2021/03/22 02:59:00;;;;;;;10.47;4.30;;;-0.70;99.90;;;;;;4987796;28;20238;-82
2021/03/22 03:01:33;;;;;;;10.90;4.90;;;-0.80;99.90;;;;;;4981231;28;20200;-85
2021/03/22 03:04:03;;;;;;;8.87;4.70;;;-0.70;99.90;;;;;;4988738;28;20207;-83
2021/03/22 03:06:54;;;;;;;5.80;4.20;;;-0.60;99.90;;;;;;4945220;28;20220;-81
2021/03/22 03:09:24;;;;;;;10.10;4.67;;;-0.60;99.90;;;;;;4974721;28;20597;-81
2021/03/22 03:11:53;;;;;;;6.17;3.43;;;-0.60;99.90;;;;;;4971930;28;20733;-82
2021/03/22 03:14:25;;;;;;;8.37;4.13;;;-0.60;99.90;;;;;;4959841;28;20255;-82
2021/03/22 03:16:53;;;;;;;7.90;4.30;;;-0.40;99.80;;;;;;4954867;28;20310;-84
2021/03/22 03:19:21;;;;;;;6.50;4.27;;;-0.40;99.00;;;;;;4973611;28;20268;-82
2021/03/22 03:21:49;;;;;;;10.10;4.23;;;-0.30;98.10;;;;;;4972805;28;20678;-83
2021/03/22 03:24:27;;;;;;;8.47;4.03;;;-0.30;97.90;;;;;;4985397;28;20220;-83
2021/03/22 03:26:54;;;;;;;8.83;4.23;;;-0.30;98.10;;;;;;4977747;28;20597;-83
2021/03/22 03:29:22;;;;;;;8.20;3.73;;;-0.40;97.80;;;;;;4979654;28;20286;-83
2021/03/22 03:31:50;;;;;;;8.47;4.17;;;-0.40;97.80;;;;;;4976569;28;20205;-82
2021/03/22 03:34:18;;;;;;;9.07;4.33;;;-0.40;98.60;;;;;;4967084;28;20228;-81
2021/03/22 03:36:46;;;;;;;8.47;4.30;;;-0.40;98.90;;;;;;4923186;28;20220;-82
2021/03/22 03:39:14;;;;;;;7.10;3.77;;;-0.40;98.80;;;;;;4973149;28;20224;-83
2021/03/22 03:41:43;;;;;;;4.63;2.90;;;-0.50;99.10;;;;;;4977834;28;20209;-80
2021/03/22 03:44:13;;;;;;;7.27;3.70;;;-0.40;99.50;;;;;;4975804;28;20212;-81
2021/03/22 03:46:41;;;;;;;10.27;4.10;;;-0.30;99.30;;;;;;4941936;28;20240;-83
2021/03/22 03:49:09;;;;;;;8.33;3.87;;;-0.40;99.30;;;;;;4972446;28;20764;-81
2021/03/22 03:51:39;;;;;;;9.57;4.20;;;-0.40;99.20;;;;;;4990196;28;20188;-82
2021/03/22 03:54:10;;;;;;;9.07;4.07;;;-0.40;99.00;;;;;;4997422;28;20197;-83
2021/03/22 03:56:39;;;;;;;8.63;3.97;;;-0.50;99.40;;;;;;4953884;28;20503;-82
2021/03/22 03:59:07;;;;;;;9.20;3.80;;;-0.40;99.90;;;;;;4985735;28;20228;-83
2021/03/22 04:01:35;;;;;;;6.83;3.50;;;-0.20;99.80;;;;;;4975816;28;20204;-82
2021/03/22 04:04:04;;;;;;;9.43;4.50;;;-0.30;99.30;;;;;;4972520;28;20213;-82
2021/03/22 04:06:34;;;;;;;7.07;4.20;;;-0.30;99.10;;;;;;4943074;28;20228;-82
2021/03/22 04:09:05;;;;;;;7.73;4.07;;;-0.30;98.70;;;;;;4985251;28;20266;-82
2021/03/22 04:11:35;;;;;;;12.73;4.33;;;-0.30;99.00;;;;;;4997140;28;20204;-82
2021/03/22 04:14:04;;;;;;;9.23;4.30;;;-0.30;98.80;;;;;;4996713;28;20311;-85
2021/03/22 04:16:34;;;;;;;9.40;4.83;;;-0.50;98.90;;;;;;4961235;28;20215;-83
2021/03/22 04:19:02;;;;;;;9.03;4.50;;;-0.60;98.20;;;;;;4981538;28;20249;-82
2021/03/22 04:21:32;;;;;;;7.00;3.97;;;-0.60;99.00;;;;;;4999325;28;20504;-82
2021/03/22 04:24:02;;;;;;;9.33;4.33;;;-0.70;99.90;;;;;;4999847;28;20192;-82
2021/03/22 04:26:30;;;;;;;8.27;3.83;;;-0.70;99.90;;;;;;4962765;28;20248;-82
2021/03/22 04:28:59;;;;;;;7.77;4.03;;;-0.70;99.90;;;;;;4995751;28;20235;-84
2021/03/22 04:31:28;;;;;;;7.77;4.50;;;-0.60;99.90;;;;;;4994993;28;20185;-81
2021/03/22 04:33:59;;;;;;;9.87;4.10;;;-0.70;99.90;;;;;;4991789;28;20239;-82
2021/03/22 04:36:30;;;;;;;7.07;4.07;;;-0.70;99.90;;;;;;4950679;28;20326;-83
2021/03/22 04:38:58;;;;;;;9.33;4.07;;;-0.90;99.90;;;;;;4974783;28;20231;-81
2021/03/22 04:41:26;;;;;;;11.20;4.40;;;-1.00;99.90;;;;;;4971738;28;20204;-82
2021/03/22 04:43:54;;;;;;;8.53;4.33;;;-1.00;99.90;;;;;;4969738;28;20734;-82
2021/03/22 04:46:22;;;;;;;10.57;6.23;;;-1.10;99.90;;;;;;4940052;28;20227;-82
2021/03/22 04:49:01;;;;;;;9.10;4.07;;;-1.10;99.90;;;;;;4971604;28;20422;-82
2021/03/22 04:51:30;;;;;;;7.73;4.23;;;-1.10;99.90;;;;;;4972842;28;20204;-83
2021/03/22 04:53:59;;;;;;;9.00;4.40;;;-1.00;99.90;;;;;;4970859;28;20608;-82
2021/03/22 04:56:26;;;;;;;9.83;4.80;;;-0.90;99.90;;;;;;4938694;28;20663;-83
2021/03/22 04:58:54;;;;;;;9.70;4.20;;;-0.80;99.90;;;;;;4968415;28;20255;-83
2021/03/22 05:01:21;;;;;;;9.07;4.37;;;-0.70;99.90;;;;;;4975580;28;20204;-83
2021/03/22 05:03:49;;;;;;;13.70;5.53;;;-0.80;99.90;;;;;;4992813;28;20851;-83
2021/03/22 05:06:19;;;;;;;7.33;4.60;;;-0.70;99.90;;;;;;4937962;28;20603;-83
2021/03/22 05:08:47;;;;;;;9.87;4.57;;;-0.60;99.90;;;;;;4975038;28;20213;-80
2021/03/22 05:11:17;;;;;;;9.50;4.47;;;-0.60;99.90;;;;;;4971588;28;20211;-85
2021/03/22 05:13:45;;;;;;;10.87;4.30;;;-0.70;99.90;;;;;;4970202;28;20234;-84
2021/03/22 05:16:14;;;;;;;9.70;4.77;;;-0.60;99.90;;;;;;4939881;28;20761;-81
2021/03/22 05:18:43;;;;;;;9.43;4.87;;;-0.50;99.90;;;;;;4970976;28;20336;-82
2021/03/22 05:21:11;;;;;;;10.83;4.57;;;-0.50;99.90;;;;;;4990786;28;20261;-82
2021/03/22 05:23:42;;;;;;;11.93;4.70;;;-0.40;99.90;;;;;;4984786;28;20201;-84
2021/03/22 05:26:13;;;;;;;8.97;4.47;;;-0.30;99.90;;;;;;4956155;28;20791;-82
2021/03/22 05:28:41;;;;;;;8.37;5.17;;;-0.30;99.90;;;;;;4973667;28;20751;-84
2021/03/22 05:31:09;;;;;;;9.10;4.93;;;-0.20;99.90;;;;;;4954225;28;20236;-82
2021/03/22 05:33:38;;;;;;;9.67;5.33;;;0.00;99.90;;;;;;4972713;28;20580;-84
2021/03/22 05:36:06;;;;;;;13.53;5.83;;;0.10;99.90;;;;;;4943330;28;20444;-82
2021/03/22 05:38:34;;;;;;;9.93;5.77;;;0.20;99.90;;;;;;4980103;28;20235;-83
2021/03/22 05:41:08;;;;;;;9.40;5.30;;;0.30;99.90;;;;;;4999110;28;20630;-82
2021/03/22 05:43:50;;;;;;;13.57;6.07;;;0.40;99.90;;;;;;4989466;28;20271;-83
2021/03/22 05:46:38;;;;;;;10.40;5.87;;;0.60;99.90;;;;;;4952899;28;20454;-83
2021/03/22 05:49:42;;;;;;;12.20;6.20;;;0.50;99.90;;;;;;4972318;28;20209;-82
2021/03/22 05:52:28;;;;;;;10.57;5.80;;;0.60;99.90;;;;;;4998724;28;20223;-81
2021/03/22 05:55:13;;;;;;;13.00;6.27;;;0.70;99.90;;;;;;4984575;28;20275;-82
2021/03/22 05:57:50;;;;;;;11.50;6.40;;;0.80;99.90;;;;;;4986751;28;20256;-83
2021/03/22 06:00:42;;;;;;;11.07;6.33;;;0.90;99.90;;;;;;4993622;28;20207;-84
2021/03/22 06:03:18;;;;;;;12.27;6.80;;;1.00;99.90;;;;;;4979906;28;20212;-83
2021/03/22 06:05:52;;;;;;;12.20;6.80;;;1.10;99.90;;;;;;4981572;28;20321;-82
2021/03/22 06:08:36;;;;;;;11.63;7.60;;;1.10;99.00;;;;;;4997640;28;20188;-82
2021/03/22 06:11:16;;;;;;;13.90;6.30;;;1.20;98.80;;;;;;4990434;28;20204;-82
2021/03/22 06:13:50;;;;;;;9.93;6.20;;;1.30;97.70;;;;;;4988356;28;20232;-82
2021/03/22 06:16:23;;;;;;;9.80;6.67;;;1.30;97.50;;;;;;4956734;28;21559;-83
2021/03/22 06:18:58;;;;;;;16.40;6.87;;;1.40;96.00;;;;;;4993863;28;20259;-82
2021/03/22 06:21:29;;;;;;;11.87;7.10;;;1.40;96.60;;;;;;4997275;28;20195;-81
2021/03/22 06:24:02;;;;;;;13.60;6.57;;;1.60;96.80;;;;;;4996783;28;20303;-82
2021/03/22 06:32:44;;;;;;;14.27;7.00;;;1.80;94.50;;;;;;4989506;28;20251;-83
2021/03/22 06:35:35;;;;;;;15.30;7.87;;;1.90;93.50;;;;;;4925159;28;20225;-86
2021/03/22 06:38:04;;;;;;;13.10;6.97;;;1.80;92.80;;;;;;4941990;28;20242;-82
2021/03/22 06:40:36;;;;;;;13.03;7.60;;;2.00;93.30;;;;;;4941246;28;20219;-84
2021/03/22 06:43:13;;;;;;;12.20;7.30;;;2.10;92.60;;;;;;4952033;28;20343;-80
2021/03/22 06:45:53;;;;;;;12.33;6.87;;;2.20;93.00;;;;;;4930052;28;20250;-82
2021/03/22 06:48:25;;;;;;;20.30;13.20;;;2.30;92.00;;;;;;4959289;28;20232;-82
2021/03/22 06:50:55;;;;;;;17.43;8.20;;;2.40;91.30;;;;;;4954491;29;20239;-81
2021/03/22 06:53:39;;;;;;;11.27;6.73;;;2.40;90.60;;;;;;4948644;28;20229;-80
2021/03/22 06:56:12;;;;;;;9.83;6.43;;;2.40;91.20;;;;;;4903986;28;20229;-82
2021/03/22 06:58:42;;;;;;;10.33;6.50;;;2.50;90.60;;;;;;4935621;28;20421;-83
2021/03/22 07:01:23;;;;;;;11.67;7.17;;;2.50;90.00;;;;;;4944775;29;20759;-82
2021/03/22 07:03:53;;;;;;;14.30;6.53;;;2.50;89.90;;;;;;4953651;29;20510;-83
2021/03/22 07:06:24;;;;;;;11.93;6.57;;;2.50;89.40;;;;;;4913010;28;20858;-84
2021/03/22 07:08:53;;;;;;;12.40;6.43;;;2.50;89.60;;;;;;4934717;28;20207;-83
2021/03/22 07:11:24;;;;;;;11.83;6.87;;;2.70;90.40;;;;;;4928143;29;21174;-80
2021/03/22 07:13:56;;;;;;;14.40;6.93;;;2.90;90.80;;;;;;4972949;28;20241;-83
2021/03/22 07:16:27;;;;;;;10.13;6.53;;;2.90;87.90;;;;;;4941451;28;20253;-82
2021/03/22 07:19:14;;;;;;;10.73;5.90;;;3.00;86.70;;;;;;4977787;28;20248;-83
2021/03/22 07:21:53;;;;;;;9.67;6.10;;;3.10;87.30;;;;;;4976545;28;20197;-82
2021/03/22 07:24:31;;;;;;;11.87;5.57;;;3.20;87.40;;;;;;4974548;28;20190;-82
2021/03/22 07:27:12;;;;;;;9.27;5.73;;;3.20;85.90;;;;;;4954477;28;20232;-81
2021/03/22 07:30:18;;;;;;;9.93;5.77;;;3.40;86.00;;;;;;4984373;28;20199;-83
2021/03/22 07:33:16;;;;;;;11.13;5.93;;;3.30;84.30;;;;;;4980365;28;20205;-82
2021/03/22 07:36:18;;;;;;;11.13;5.90;;;3.50;85.70;;;;;;4935969;28;20511;-81
2021/03/22 07:39:06;;;;;;;9.73;6.40;;;3.70;85.60;;;;;;4972343;28;20239;-83
2021/03/22 07:41:47;;;;;;;11.20;6.30;;;3.70;84.20;;;;;;4972159;28;20195;-82
2021/03/22 07:44:52;;;;;;;11.43;6.93;;;3.70;84.30;;;;;;4983173;28;20204;-81
2021/03/22 07:47:41;;;;;;;11.40;6.93;;;3.80;84.90;;;;;;4966604;28;20215;-81
2021/03/22 07:50:20;;;;;;;11.00;6.77;;;3.70;83.20;;;;;;5001414;28;20346;-83
2021/03/22 07:52:56;;;;;;;10.57;6.90;;;3.60;82.70;;;;;;4993057;28;20193;-81
2021/03/22 07:55:38;;;;;;;11.97;9.77;;;3.40;83.30;;;;;;4970942;28;20300;-83
2021/03/22 07:58:16;;;;;;;15.00;10.60;;;3.30;82.70;;;;;;4989640;28;20217;-82
2021/03/22 08:00:57;;;;;;;12.67;7.60;;;3.30;83.50;;;;;;4967320;28;21043;-83
2021/03/22 08:03:30;;;;;;;11.77;7.40;;;3.30;83.20;;;;;;4975730;28;20359;-84
2021/03/22 08:06:22;;;;;;;8.70;5.13;;;3.50;83.40;;;;;;4943489;28;20449;-82
2021/03/22 08:09:01;;;;;;;10.23;5.90;;;3.60;82.80;;;;;;4981320;28;20211;-82
2021/03/22 08:11:37;;;;;;;10.53;5.80;;;3.60;82.50;;;;;;4978720;28;20715;-84
2021/03/22 08:14:13;;;;;;;9.47;6.27;;;3.50;82.80;;;;;;4992138;28;20204;-84
2021/03/22 08:17:30;;;;;;;13.70;9.37;;;3.40;83.00;;;;;;4941438;28;20348;-83
2021/03/22 08:20:11;;;;;;;13.57;7.80;;;3.10;84.60;;;;;;4988586;28;20217;-82
2021/03/22 08:22:47;;;;;;;9.57;7.47;;;2.70;87.40;;;;;;4987918;28;20490;-84
2021/03/22 08:25:39;;;;;;;12.80;8.57;;;2.50;90.20;;;;;;4965125;28;20248;-83
2021/03/22 08:28:18;;;;;;;11.67;8.90;;;2.30;91.60;;;;;;4983015;28;20216;-81
2021/03/22 08:30:54;;;;;;;9.63;6.83;;;2.20;92.80;;;;;;4991007;28;20459;-83
2021/03/22 08:33:29;;;;;;;12.13;9.80;;;2.20;93.90;;;;;;4995175;28;20196;-84
2021/03/22 08:36:04;;;;;;;12.93;10.30;;;2.20;94.30;;;;;;4954289;28;20227;-83
2021/03/22 08:38:48;;;;;;;13.77;11.17;;;2.40;94.60;;;;;;4971677;28;20232;-84
2021/03/22 08:41:29;;;;;;;16.50;10.07;;;2.60;94.40;;;;;;4999674;28;20200;-82
2021/03/22 08:44:05;;;;;;;12.73;9.63;;;2.70;93.60;;;;;;4992152;28;20202;-83
2021/03/22 08:46:38;;;;;;;12.40;10.93;;;2.70;93.40;;;;;;4941315;28;20907;-84
2021/03/22 08:49:25;;;;;;;13.77;9.50;;;2.90;94.00;;;;;;4994917;28;20202;-81
2021/03/22 08:51:59;;;;;;;11.73;8.17;;;3.00;92.70;;;;;;4996889;28;20201;-84
2021/03/22 08:54:34;;;;;;;14.50;8.73;;;3.20;91.60;;;;;;4962053;28;20206;-83
2021/03/22 08:57:10;;;;;;;15.07;10.23;;;3.30;91.40;;;;;;4958965;28;20216;-83
2021/03/22 08:59:38;;;;;;;15.47;10.70;;;3.60;91.90;;;;;;4994899;28;20205;-82
2021/03/22 09:02:18;;;;;;;13.50;10.87;;;3.90;90.10;;;;;;4991859;28;20202;-83
2021/03/22 09:04:46;;;;;;;13.33;10.30;;;4.00;89.30;;;;;;4972496;28;20222;-83
2021/03/22 09:07:32;;;;;;;10.97;7.70;;;4.20;88.80;;;;;;4964791;28;20211;-85
2021/03/22 09:10:29;;;;;;;9.80;5.67;;;4.40;87.90;;;;;;4982257;28;20417;-84
2021/03/22 09:13:23;;;;;;;9.60;5.10;;;4.40;87.10;;;;;;4995413;28;20192;-84
2021/03/22 09:16:30;;;;;;;7.37;5.73;;;4.20;86.10;;;;;;4955381;28;20232;-83
2021/03/22 09:19:40;;;;;;;7.50;4.37;;;4.00;86.60;;;;;;4996440;28;20278;-83
2021/03/22 09:22:51;;;;;;;11.37;5.57;;;3.70;87.90;;;;;;4986619;28;20200;-81
2021/03/22 09:26:02;;;;;;;8.63;5.60;;;3.80;89.20;;;;;;4936974;28;20757;-81
2021/03/22 09:28:46;;;;;;;7.53;3.90;;;3.90;88.90;;;;;;4971895;28;20217;-84
2021/03/22 09:31:41;;;;;;;7.40;4.43;;;3.80;87.60;;;;;;4956374;28;20227;-83
2021/03/22 09:34:36;;;;;;;8.37;5.67;;;3.60;86.00;;;;;;4927775;28;20443;-82
2021/03/22 09:37:45;;;;;;;8.63;5.90;;;3.50;86.90;;;;;;4945592;28;20233;-85
2021/03/22 09:40:53;;;;;;;8.97;6.30;;;3.50;87.60;;;;;;4991175;28;20477;-84
2021/03/22 09:47:04;;;;;;;12.03;5.87;;;3.80;87.40;;;;;;4951716;28;20232;-84
2021/03/22 09:49:57;;;;;;;8.27;5.20;;;3.80;86.50;;;;;;4982881;28;20215;-84
2021/03/22 09:52:32;;;;;;;8.70;5.40;;;3.90;85.60;;;;;;4990488;28;20198;-83
2021/03/22 09:55:21;;;;;;;8.70;5.20;;;4.00;85.10;;;;;;4959879;28;21278;-82
2021/03/22 09:57:50;;;;;;;9.00;5.13;;;4.10;85.40;;;;;;4961264;28;20214;-84
2021/03/22 10:00:54;;;;;;;12.80;5.70;;;4.10;85.10;;;;;;4991861;28;20210;-82
2021/03/22 10:04:05;;;;;;;11.47;4.90;;;4.20;85.30;;;;;;4982338;28;20203;-84
2021/03/22 10:06:58;;;;;;;8.57;3.77;;;4.30;84.50;;;;;;4940819;28;20230;-81
2021/03/22 10:09:36;;;;;;;6.20;3.97;;;4.40;83.40;;;;;;4982394;28;20204;-80
2021/03/22 10:12:12;;;;;;;6.77;4.30;;;4.50;83.20;;;;;;4966539;28;20227;-83
2021/03/22 10:14:44;;;;;;;7.20;4.30;;;4.70;83.30;;;;;;4946574;28;20229;-82
2021/03/22 10:17:28;;;;;;;4.90;2.70;;;4.80;83.40;;;;;;4961531;28;20223;-81
2021/03/22 10:20:03;;;;;;;7.17;3.63;;;5.10;82.10;;;;;;4982616;28;20343;-83
2021/03/22 10:22:38;;;;;;;7.57;3.10;;;5.20;82.00;;;;;;4990702;28;20262;-81
2021/03/22 10:25:17;;;;;;;5.50;3.23;;;5.20;82.20;;;;;;4963867;28;20230;-82
2021/03/22 10:27:46;;;;;;;7.50;3.23;;;5.30;81.50;;;;;;4958813;28;20825;-83
2021/03/22 10:30:18;;;;;;;5.00;3.27;;;5.20;81.30;;;;;;4966329;28;20383;-82
2021/03/22 10:32:50;;;;;;;2.30;2.10;;;5.20;81.50;;;;;;4968610;28;20209;-78
2021/03/22 10:35:21;;;;;;;7.57;2.60;;;5.00;80.90;;;;;;4955376;28;20275;-80
2021/03/22 10:37:52;;;;;;;6.50;2.53;;;4.90;81.10;;;;;;4963329;28;20227;-80
2021/03/22 10:40:28;;;;;;;6.17;3.07;;;4.90;82.00;;;;;;4983571;28;20216;-81
2021/03/22 10:42:57;;;;;;;3.33;1.87;;;4.90;82.10;;;;;;4986171;28;20191;-83
2021/03/22 10:45:45;;;;;;;6.27;2.20;;;5.00;81.60;;;;;;4958588;28;20251;-82
2021/03/22 10:48:29;;;;;;;3.57;2.50;;;5.00;80.50;;;;;;4991199;28;20196;-83
2021/03/22 10:51:03;;;;;;;6.57;2.70;;;4.90;80.80;;;;;;4985840;28;20265;-83
2021/03/22 10:53:33;;;;;;;9.47;2.90;;;5.10;80.70;;;;;;4990048;28;20204;-80
2021/03/22 10:56:18;;;;;;;6.30;2.90;;;5.00;80.80;;;;;;4952512;28;20611;-83
2021/03/22 10:58:48;;;;;;;6.17;2.27;;;5.10;81.10;;;;;;4984279;28;20225;-82
2021/03/22 11:01:18;;;;;;;8.17;3.00;;;5.20;80.80;;;;;;4984651;28;20262;-81
2021/03/22 11:03:49;;;;;;;5.27;2.30;;;5.30;80.60;;;;;;4953295;28;21086;-82
2021/03/22 11:06:30;;;;;;;4.67;3.00;;;5.40;80.60;;;;;;4927419;28;20586;-83
2021/03/22 11:09:04;;;;;;;4.50;2.83;;;5.40;80.20;;;;;;4992951;28;20188;-81
2021/03/22 11:11:33;;;;;;;5.77;3.43;;;5.50;79.40;;;;;;4991606;28;20188;-80
2021/03/22 11:14:04;;;;;;;5.63;2.90;;;5.60;79.20;;;;;;4984855;28;20213;-81
2021/03/22 11:16:35;;;;;;;5.70;2.90;;;5.70;79.40;;;;;;4945183;28;20208;-85
2021/03/22 11:19:26;;;;;;;2.53;2.23;;;5.70;78.10;;;;;;4997279;28;20216;-82
2021/03/22 11:21:56;;;;;;;4.93;3.43;;;5.80;78.60;;;;;;4984130;28;20212;-82
2021/03/22 11:24:40;;;;;;;6.57;3.23;;;5.90;79.10;;;;;;4975980;28;20216;-82
2021/03/22 11:27:11;;;;;;;5.50;3.30;;;6.00;78.60;;;;;;4966722;28;20213;-81
2021/03/22 11:29:57;;;;;;;6.87;3.53;;;6.10;78.00;;;;;;4982873;28;20208;-82
2021/03/22 11:32:29;;;;;;;7.07;2.97;;;6.20;78.20;;;;;;4968566;28;20213;-83
2021/03/22 11:35:13;;;;;;;4.10;2.47;;;6.30;76.80;;;;;;4954945;28;20282;-82
2021/03/22 11:37:51;;;;;;;6.40;2.53;;;6.40;77.20;;;;;;4952401;28;20894;-82
2021/03/22 11:40:23;;;;;;;5.10;2.53;;;6.50;75.70;;;;;;4976023;28;20230;-82
2021/03/22 11:42:58;;;;;;;4.47;3.00;;;6.50;75.80;;;;;;4969567;28;20483;-82
2021/03/22 11:45:34;;;;;;;6.37;3.07;;;6.60;75.80;;;;;;4938205;28;20486;-82
2021/03/22 11:48:04;;;;;;;4.30;2.90;;;6.60;75.80;;;;;;4969834;28;20338;-81
2021/03/22 11:50:40;;;;;;;3.73;2.83;;;6.50;75.80;;;;;;4975592;28;20210;-82
2021/03/22 11:53:21;;;;;;;4.53;2.40;;;6.40;75.00;;;;;;4975872;28;20196;-80
2021/03/22 11:55:52;;;;;;;3.20;1.83;;;6.30;75.20;;;;;;4938564;28;20237;-82
2021/03/22 11:58:30;;;;;;;4.30;2.83;;;6.20;73.80;;;;;;4974425;28;20354;-82
2021/03/22 12:01:14;;;;;;;3.80;2.00;;;6.20;73.80;;;;;;4978365;28;20204;-83
2021/03/22 12:03:47;;;;;;;8.57;2.73;;;6.30;74.30;;;;;;4971075;28;20746;-80
2021/03/22 12:06:18;;;;;;;1.47;1.20;;;6.40;72.90;;;;;;4931764;28;20221;-81
2021/03/22 12:08:48;;;;;;;3.50;2.00;;;6.50;70.90;;;;;;4994677;28;20178;-82
2021/03/22 12:11:23;;;;;;;4.13;1.93;;;6.50;70.90;;;;;;4978792;28;20209;-81
2021/03/22 12:13:53;;;;;;;4.10;1.93;;;6.50;70.10;;;;;;4977689;28;20204;-79
2021/03/22 12:16:24;;;;;;;2.33;1.83;;;6.50;71.00;;;;;;4919019;28;20833;-82
2021/03/22 12:18:56;;;;;;;3.93;2.10;;;6.40;70.60;;;;;;4977628;28;20248;-81
2021/03/22 12:21:24;;;;;;;4.80;2.23;;;6.40;71.00;;;;;;4968747;28;20772;-83
2021/03/22 12:23:53;;;;;;;3.73;2.20;;;6.30;70.40;;;;;;4969759;28;20201;-80
2021/03/22 12:26:22;;;;;;;4.57;2.57;;;6.30;70.10;;;;;;4926054;28;20240;-81
2021/03/22 12:28:56;;;;;;;5.70;2.40;;;6.30;69.60;;;;;;4971672;28;20205;-83
2021/03/22 12:31:28;;;;;;;4.07;2.27;;;6.30;69.50;;;;;;4979819;28;20206;-81
2021/03/22 12:33:59;;;;;;;2.40;1.80;;;6.40;69.30;;;;;;4989934;28;20196;-82
2021/03/22 12:36:28;;;;;;;6.27;2.20;;;6.50;68.30;;;;;;4945541;28;21080;-81
2021/03/22 12:38:56;;;;;;;2.07;1.53;;;6.60;68.30;;;;;;4995547;28;20221;-85
2021/03/22 12:41:30;;;;;;;4.60;2.00;;;6.80;66.40;;;;;;4984240;28;20209;-82
2021/03/22 12:43:58;;;;;;;5.47;1.80;;;7.00;65.20;;;;;;4958925;28;20220;-83
2021/03/22 12:46:29;;;;;;;4.10;1.50;;;7.20;64.00;;;;;;4945562;28;20539;-83
2021/03/22 12:48:57;;;;;;;6.57;2.10;;;7.10;64.40;;;;;;4988593;28;20319;-81
2021/03/22 12:51:25;;;;;;;3.70;2.30;;;7.10;65.10;;;;;;4968985;28;20206;-81
2021/03/22 12:53:55;;;;;;;4.87;2.00;;;7.10;64.40;;;;;;4971149;28;20208;-83
2021/03/22 12:56:27;;;;;;;4.00;1.93;;;7.00;65.20;;;;;;4921439;28;20902;-80
2021/03/22 12:59:02;;;;;;;4.20;1.80;;;6.90;64.40;;;;;;4980256;28;20225;-81
2021/03/22 13:01:30;;;;;;;2.13;1.60;;;6.60;63.60;;;;;;4972933;28;20613;-83
2021/03/22 13:03:59;;;;;;;4.60;1.77;;;6.50;63.10;;;;;;4967054;28;20231;-83
2021/03/22 13:06:27;;;;;;;2.33;1.43;;;6.20;61.80;;;;;;4921602;28;20221;-83
2021/03/22 13:08:55;;;;;;;2.27;1.77;;;6.40;61.80;;;;;;4972584;28;20214;-81
2021/03/22 13:11:25;;;;;;;4.47;1.93;;;6.40;62.10;;;;;;4994980;28;20208;-83
2021/03/22 13:13:53;;;;;;;2.10;1.70;;;6.40;62.20;;;;;;4989121;28;20248;-82
2021/03/22 13:16:22;;;;;;;2.07;1.77;;;6.30;63.20;;;;;;4954182;28;20282;-82
2021/03/22 13:18:50;;;;;;;2.63;1.70;;;6.30;64.60;;;;;;4981750;28;20295;-81
2021/03/22 13:21:20;;;;;;;5.03;2.50;;;6.30;64.80;;;;;;4972293;28;20216;-82
2021/03/22 13:24:46;;;;;;;4.33;2.20;;;6.30;65.00;;;;;;4967298;28;20708;-83
2021/03/22 13:27:19;;;;;;;2.33;1.57;;;6.40;65.40;;;;;;4957019;28;20244;-78
2021/03/22 13:29:47;;;;;;;2.13;1.77;;;6.40;65.10;;;;;;4978013;28;20265;-82
2021/03/22 13:32:15;;;;;;;4.10;1.80;;;6.30;65.30;;;;;;4975609;28;20260;-82
2021/03/22 13:34:43;;;;;;;4.37;2.27;;;6.30;64.90;;;;;;4962696;28;20665;-83
2021/03/22 13:37:18;;;;;;;5.40;2.03;;;6.30;64.50;;;;;;4933491;28;20232;-82
2021/03/22 13:39:46;;;;;;;3.27;2.13;;;6.40;65.80;;;;;;4977162;28;20636;-82
2021/03/22 13:42:14;;;;;;;2.77;2.00;;;6.40;66.60;;;;;;4973790;28;20215;-82
2021/03/22 13:44:42;;;;;;;3.40;1.80;;;6.50;65.60;;;;;;4959689;28;21376;-84
2021/03/22 13:47:12;;;;;;;5.50;2.33;;;6.80;65.60;;;;;;4949443;28;20224;-83